sensor_id;sensor_type;location;lat;lon;timestamp;P1;durP1;ratioP1;P2;durP2;ratioP2
51901;SDS011;37929;53.218;6.548;2022-11-14T00:02:06;30.15;;;13.27;;
51901;SDS011;37929;53.218;6.548;2022-11-14T00:04:32;24.60;;;11.77;;
51901;SDS011;37929;53.218;6.548;2022-11-14T00:07:04;26.90;;;12.52;;
51901;SDS011;37929;53.218;6.548;2022-11-14T00:09:30;25.92;;;12.40;;
51901;SDS011;37929;53.218;6.548;2022-11-14T00:11:56;25.02;;;11.68;;
51901;SDS011;37929;53.218;6.548;2022-11-14T00:14:24;26.98;;;11.55;;
51901;SDS011;37929;53.218;6.548;2022-11-14T00:16:50;26.02;;;12.25;;
51901;SDS011;37929;53.218;6.548;2022-11-14T00:19:16;25.27;;;12.15;;
51901;SDS011;37929;53.218;6.548;2022-11-14T00:21:44;22.60;;;11.57;;
51901;SDS011;37929;53.218;6.548;2022-11-14T00:24:10;25.85;;;11.18;;
51901;SDS011;37929;53.218;6.548;2022-11-14T00:26:36;21.63;;;10.40;;
51901;SDS011;37929;53.218;6.548;2022-11-14T00:29:05;23.15;;;11.35;;
51901;SDS011;37929;53.218;6.548;2022-11-14T00:31:31;27.85;;;11.23;;
51901;SDS011;37929;53.218;6.548;2022-11-14T00:33:57;28.13;;;12.68;;
51901;SDS011;37929;53.218;6.548;2022-11-14T00:36:22;21.58;;;11.10;;
51901;SDS011;37929;53.218;6.548;2022-11-14T00:38:51;24.48;;;11.05;;
51901;SDS011;37929;53.218;6.548;2022-11-14T00:41:18;25.75;;;11.88;;
51901;SDS011;37929;53.218;6.548;2022-11-14T00:43:44;26.80;;;12.43;;
51901;SDS011;37929;53.218;6.548;2022-11-14T00:46:10;26.58;;;11.95;;
51901;SDS011;37929;53.218;6.548;2022-11-14T00:48:42;24.30;;;11.80;;
51901;SDS011;37929;53.218;6.548;2022-11-14T00:51:10;23.48;;;11.35;;
51901;SDS011;37929;53.218;6.548;2022-11-14T00:53:36;25.05;;;11.60;;
51901;SDS011;37929;53.218;6.548;2022-11-14T00:56:02;28.08;;;12.05;;
51901;SDS011;37929;53.218;6.548;2022-11-14T00:58:29;25.10;;;12.25;;
51901;SDS011;37929;53.218;6.548;2022-11-14T01:00:54;26.42;;;12.43;;
51901;SDS011;37929;53.218;6.548;2022-11-14T01:03:20;27.10;;;12.93;;
51901;SDS011;37929;53.218;6.548;2022-11-14T01:05:49;26.38;;;13.13;;
51901;SDS011;37929;53.218;6.548;2022-11-14T01:08:16;28.50;;;12.82;;
51901;SDS011;37929;53.218;6.548;2022-11-14T01:10:44;31.17;;;13.73;;
51901;SDS011;37929;53.218;6.548;2022-11-14T01:13:11;29.00;;;12.73;;
51901;SDS011;37929;53.218;6.548;2022-11-14T01:15:41;29.13;;;12.98;;
51901;SDS011;37929;53.218;6.548;2022-11-14T01:18:16;29.25;;;13.18;;
51901;SDS011;37929;53.218;6.548;2022-11-14T01:20:44;28.90;;;13.43;;
51901;SDS011;37929;53.218;6.548;2022-11-14T01:23:13;29.65;;;13.75;;
51901;SDS011;37929;53.218;6.548;2022-11-14T01:25:40;28.80;;;14.73;;
51901;SDS011;37929;53.218;6.548;2022-11-14T01:28:10;28.02;;;13.20;;
51901;SDS011;37929;53.218;6.548;2022-11-14T01:30:37;27.70;;;13.57;;
51901;SDS011;37929;53.218;6.548;2022-11-14T01:33:03;25.67;;;13.05;;
51901;SDS011;37929;53.218;6.548;2022-11-14T01:35:30;30.10;;;14.00;;
51901;SDS011;37929;53.218;6.548;2022-11-14T01:37:57;29.33;;;13.93;;
51901;SDS011;37929;53.218;6.548;2022-11-14T01:40:25;28.63;;;13.00;;
51901;SDS011;37929;53.218;6.548;2022-11-14T01:45:52;31.17;;;13.73;;
51901;SDS011;37929;53.218;6.548;2022-11-14T01:51:15;31.30;;;14.57;;
51901;SDS011;37929;53.218;6.548;2022-11-14T01:53:42;27.75;;;14.13;;
51901;SDS011;37929;53.218;6.548;2022-11-14T01:56:14;33.13;;;15.70;;
51901;SDS011;37929;53.218;6.548;2022-11-14T01:58:43;33.33;;;14.20;;
51901;SDS011;37929;53.218;6.548;2022-11-14T02:01:12;29.63;;;14.82;;
51901;SDS011;37929;53.218;6.548;2022-11-14T02:03:41;34.90;;;15.80;;
51901;SDS011;37929;53.218;6.548;2022-11-14T02:06:11;33.17;;;15.32;;
51901;SDS011;37929;53.218;6.548;2022-11-14T02:08:40;31.25;;;15.05;;
51901;SDS011;37929;53.218;6.548;2022-11-14T02:11:09;36.30;;;15.77;;
51901;SDS011;37929;53.218;6.548;2022-11-14T02:13:37;31.73;;;15.43;;
51901;SDS011;37929;53.218;6.548;2022-11-14T02:16:04;37.28;;;16.98;;
51901;SDS011;37929;53.218;6.548;2022-11-14T02:18:30;37.47;;;16.92;;
51901;SDS011;37929;53.218;6.548;2022-11-14T02:20:59;33.35;;;15.80;;
51901;SDS011;37929;53.218;6.548;2022-11-14T02:23:26;35.60;;;16.35;;
51901;SDS011;37929;53.218;6.548;2022-11-14T02:25:53;33.28;;;15.38;;
51901;SDS011;37929;53.218;6.548;2022-11-14T02:28:20;39.35;;;17.05;;
51901;SDS011;37929;53.218;6.548;2022-11-14T02:30:46;36.47;;;16.75;;
51901;SDS011;37929;53.218;6.548;2022-11-14T02:33:12;38.10;;;16.38;;
51901;SDS011;37929;53.218;6.548;2022-11-14T02:35:38;32.58;;;17.48;;
51901;SDS011;37929;53.218;6.548;2022-11-14T02:38:04;35.78;;;16.40;;
51901;SDS011;37929;53.218;6.548;2022-11-14T02:40:30;33.92;;;17.23;;
51901;SDS011;37929;53.218;6.548;2022-11-14T02:42:56;40.22;;;18.63;;
51901;SDS011;37929;53.218;6.548;2022-11-14T02:45:22;38.88;;;16.98;;
51901;SDS011;37929;53.218;6.548;2022-11-14T02:47:48;35.22;;;16.92;;
51901;SDS011;37929;53.218;6.548;2022-11-14T02:50:14;39.90;;;19.15;;
51901;SDS011;37929;53.218;6.548;2022-11-14T02:52:41;41.60;;;16.90;;
51901;SDS011;37929;53.218;6.548;2022-11-14T02:55:10;36.45;;;17.02;;
51901;SDS011;37929;53.218;6.548;2022-11-14T02:57:36;35.25;;;17.05;;
51901;SDS011;37929;53.218;6.548;2022-11-14T03:00:02;38.20;;;17.30;;
51901;SDS011;37929;53.218;6.548;2022-11-14T03:02:29;33.35;;;16.52;;
51901;SDS011;37929;53.218;6.548;2022-11-14T03:04:55;39.33;;;17.60;;
51901;SDS011;37929;53.218;6.548;2022-11-14T03:07:20;38.15;;;17.77;;
51901;SDS011;37929;53.218;6.548;2022-11-14T03:09:46;35.08;;;16.50;;
51901;SDS011;37929;53.218;6.548;2022-11-14T03:12:14;39.38;;;17.92;;
51901;SDS011;37929;53.218;6.548;2022-11-14T03:14:40;38.13;;;16.95;;
51901;SDS011;37929;53.218;6.548;2022-11-14T03:17:09;35.97;;;16.58;;
51901;SDS011;37929;53.218;6.548;2022-11-14T03:19:35;36.35;;;16.88;;
51901;SDS011;37929;53.218;6.548;2022-11-14T03:22:01;40.28;;;17.02;;
51901;SDS011;37929;53.218;6.548;2022-11-14T03:24:27;34.65;;;15.77;;
51901;SDS011;37929;53.218;6.548;2022-11-14T03:26:52;34.17;;;16.17;;
51901;SDS011;37929;53.218;6.548;2022-11-14T03:29:18;35.65;;;16.77;;
51901;SDS011;37929;53.218;6.548;2022-11-14T03:31:44;34.05;;;16.20;;
51901;SDS011;37929;53.218;6.548;2022-11-14T03:34:10;40.58;;;18.75;;
51901;SDS011;37929;53.218;6.548;2022-11-14T03:36:36;33.42;;;17.08;;
51901;SDS011;37929;53.218;6.548;2022-11-14T03:39:02;33.72;;;17.17;;
51901;SDS011;37929;53.218;6.548;2022-11-14T03:41:29;36.75;;;17.58;;
51901;SDS011;37929;53.218;6.548;2022-11-14T03:43:55;37.25;;;16.95;;
51901;SDS011;37929;53.218;6.548;2022-11-14T03:46:20;38.13;;;17.73;;
51901;SDS011;37929;53.218;6.548;2022-11-14T03:48:46;39.30;;;17.83;;
51901;SDS011;37929;53.218;6.548;2022-11-14T03:51:15;41.05;;;17.98;;
51901;SDS011;37929;53.218;6.548;2022-11-14T03:53:41;36.08;;;16.58;;
51901;SDS011;37929;53.218;6.548;2022-11-14T03:56:10;38.13;;;17.70;;
51901;SDS011;37929;53.218;6.548;2022-11-14T03:58:35;45.88;;;18.42;;
51901;SDS011;37929;53.218;6.548;2022-11-14T04:01:01;40.35;;;17.88;;
51901;SDS011;37929;53.218;6.548;2022-11-14T04:03:27;37.85;;;17.35;;
51901;SDS011;37929;53.218;6.548;2022-11-14T04:05:54;36.90;;;16.45;;
51901;SDS011;37929;53.218;6.548;2022-11-14T04:08:20;34.15;;;16.80;;
51901;SDS011;37929;53.218;6.548;2022-11-14T04:10:46;36.38;;;17.05;;
51901;SDS011;37929;53.218;6.548;2022-11-14T04:13:12;34.83;;;17.00;;
51901;SDS011;37929;53.218;6.548;2022-11-14T04:15:38;40.60;;;18.55;;
51901;SDS011;37929;53.218;6.548;2022-11-14T04:18:04;35.50;;;16.55;;
51901;SDS011;37929;53.218;6.548;2022-11-14T04:20:33;35.20;;;18.10;;
51901;SDS011;37929;53.218;6.548;2022-11-14T04:22:58;42.40;;;19.55;;
51901;SDS011;37929;53.218;6.548;2022-11-14T04:25:27;38.00;;;18.15;;
51901;SDS011;37929;53.218;6.548;2022-11-14T04:27:53;36.55;;;17.17;;
51901;SDS011;37929;53.218;6.548;2022-11-14T04:30:19;43.78;;;19.75;;
51901;SDS011;37929;53.218;6.548;2022-11-14T04:32:48;37.90;;;17.27;;
51901;SDS011;37929;53.218;6.548;2022-11-14T04:35:14;37.10;;;17.90;;
51901;SDS011;37929;53.218;6.548;2022-11-14T04:37:42;41.78;;;18.63;;
51901;SDS011;37929;53.218;6.548;2022-11-14T04:40:08;40.05;;;18.65;;
51901;SDS011;37929;53.218;6.548;2022-11-14T04:42:34;39.20;;;17.08;;
51901;SDS011;37929;53.218;6.548;2022-11-14T04:45:00;38.03;;;17.15;;
51901;SDS011;37929;53.218;6.548;2022-11-14T04:47:25;36.97;;;17.38;;
51901;SDS011;37929;53.218;6.548;2022-11-14T04:49:51;36.85;;;17.45;;
51901;SDS011;37929;53.218;6.548;2022-11-14T04:52:17;38.72;;;17.75;;
51901;SDS011;37929;53.218;6.548;2022-11-14T04:54:43;31.75;;;16.00;;
51901;SDS011;37929;53.218;6.548;2022-11-14T04:57:08;39.65;;;17.33;;
51901;SDS011;37929;53.218;6.548;2022-11-14T04:59:34;36.15;;;17.88;;
51901;SDS011;37929;53.218;6.548;2022-11-14T05:02:00;37.65;;;17.17;;
51901;SDS011;37929;53.218;6.548;2022-11-14T05:04:26;34.58;;;16.38;;
51901;SDS011;37929;53.218;6.548;2022-11-14T05:06:51;29.55;;;15.68;;
51901;SDS011;37929;53.218;6.548;2022-11-14T05:09:17;33.65;;;16.20;;
51901;SDS011;37929;53.218;6.548;2022-11-14T05:11:43;34.17;;;15.88;;
51901;SDS011;37929;53.218;6.548;2022-11-14T05:14:08;33.92;;;16.38;;
51901;SDS011;37929;53.218;6.548;2022-11-14T05:16:34;29.48;;;14.73;;
51901;SDS011;37929;53.218;6.548;2022-11-14T05:19:00;31.95;;;16.70;;
51901;SDS011;37929;53.218;6.548;2022-11-14T05:21:26;37.50;;;16.45;;
51901;SDS011;37929;53.218;6.548;2022-11-14T05:23:51;30.88;;;15.40;;
51901;SDS011;37929;53.218;6.548;2022-11-14T05:26:17;31.33;;;15.50;;
51901;SDS011;37929;53.218;6.548;2022-11-14T05:28:43;33.63;;;16.05;;
51901;SDS011;37929;53.218;6.548;2022-11-14T05:31:10;33.83;;;15.68;;
51901;SDS011;37929;53.218;6.548;2022-11-14T05:33:39;33.47;;;14.93;;
51901;SDS011;37929;53.218;6.548;2022-11-14T05:36:14;33.65;;;16.38;;
51901;SDS011;37929;53.218;6.548;2022-11-14T05:38:41;34.80;;;15.68;;
51901;SDS011;37929;53.218;6.548;2022-11-14T05:41:08;30.77;;;15.38;;
51901;SDS011;37929;53.218;6.548;2022-11-14T05:43:36;33.20;;;16.23;;
51901;SDS011;37929;53.218;6.548;2022-11-14T05:46:06;35.55;;;15.95;;
51901;SDS011;37929;53.218;6.548;2022-11-14T05:48:34;33.92;;;15.63;;
51901;SDS011;37929;53.218;6.548;2022-11-14T05:51:01;34.72;;;14.82;;
51901;SDS011;37929;53.218;6.548;2022-11-14T05:53:28;36.67;;;16.77;;
51901;SDS011;37929;53.218;6.548;2022-11-14T05:55:59;34.42;;;15.63;;
51901;SDS011;37929;53.218;6.548;2022-11-14T05:58:30;34.00;;;15.88;;
51901;SDS011;37929;53.218;6.548;2022-11-14T06:01:07;36.47;;;15.38;;
51901;SDS011;37929;53.218;6.548;2022-11-14T06:03:38;33.53;;;16.05;;
51901;SDS011;37929;53.218;6.548;2022-11-14T06:06:18;35.55;;;15.30;;
51901;SDS011;37929;53.218;6.548;2022-11-14T06:08:53;33.00;;;16.02;;
51901;SDS011;37929;53.218;6.548;2022-11-14T06:11:21;35.40;;;15.73;;
51901;SDS011;37929;53.218;6.548;2022-11-14T06:13:47;36.30;;;16.42;;
51901;SDS011;37929;53.218;6.548;2022-11-14T06:16:16;35.65;;;16.25;;
51901;SDS011;37929;53.218;6.548;2022-11-14T06:18:46;34.83;;;15.88;;
51901;SDS011;37929;53.218;6.548;2022-11-14T06:21:13;34.72;;;15.63;;
51901;SDS011;37929;53.218;6.548;2022-11-14T06:23:42;35.28;;;15.73;;
51901;SDS011;37929;53.218;6.548;2022-11-14T06:28:48;35.67;;;16.63;;
51901;SDS011;37929;53.218;6.548;2022-11-14T06:35:03;36.85;;;15.80;;
51901;SDS011;37929;53.218;6.548;2022-11-14T06:37:37;39.50;;;17.17;;
51901;SDS011;37929;53.218;6.548;2022-11-14T06:40:06;39.05;;;17.67;;
51901;SDS011;37929;53.218;6.548;2022-11-14T06:42:37;38.90;;;17.25;;
51901;SDS011;37929;53.218;6.548;2022-11-14T06:45:03;37.42;;;16.60;;
51901;SDS011;37929;53.218;6.548;2022-11-14T06:47:32;38.35;;;15.32;;
51901;SDS011;37929;53.218;6.548;2022-11-14T06:49:58;33.50;;;16.63;;
51901;SDS011;37929;53.218;6.548;2022-11-14T06:52:24;33.85;;;15.02;;
51901;SDS011;37929;53.218;6.548;2022-11-14T06:54:50;39.10;;;17.10;;
51901;SDS011;37929;53.218;6.548;2022-11-14T06:57:16;37.88;;;15.85;;
51901;SDS011;37929;53.218;6.548;2022-11-14T06:59:45;33.95;;;16.25;;
51901;SDS011;37929;53.218;6.548;2022-11-14T07:02:20;35.85;;;16.50;;
51901;SDS011;37929;53.218;6.548;2022-11-14T07:04:46;35.60;;;16.38;;
51901;SDS011;37929;53.218;6.548;2022-11-14T07:07:12;36.60;;;16.95;;
51901;SDS011;37929;53.218;6.548;2022-11-14T07:09:37;35.05;;;16.42;;
51901;SDS011;37929;53.218;6.548;2022-11-14T07:12:03;38.42;;;16.25;;
51901;SDS011;37929;53.218;6.548;2022-11-14T07:14:29;36.65;;;17.85;;
51901;SDS011;37929;53.218;6.548;2022-11-14T07:16:55;39.20;;;16.50;;
51901;SDS011;37929;53.218;6.548;2022-11-14T07:19:21;42.60;;;17.63;;
51901;SDS011;37929;53.218;6.548;2022-11-14T07:21:47;37.55;;;16.55;;
51901;SDS011;37929;53.218;6.548;2022-11-14T07:24:13;34.00;;;16.70;;
51901;SDS011;37929;53.218;6.548;2022-11-14T07:26:39;37.45;;;16.38;;
51901;SDS011;37929;53.218;6.548;2022-11-14T07:29:04;35.95;;;16.23;;
51901;SDS011;37929;53.218;6.548;2022-11-14T07:31:30;34.17;;;15.48;;
51901;SDS011;37929;53.218;6.548;2022-11-14T07:33:56;39.42;;;16.08;;
51901;SDS011;37929;53.218;6.548;2022-11-14T07:36:21;33.90;;;15.90;;
51901;SDS011;37929;53.218;6.548;2022-11-14T07:38:47;37.13;;;16.52;;
51901;SDS011;37929;53.218;6.548;2022-11-14T07:41:14;36.22;;;15.88;;
51901;SDS011;37929;53.218;6.548;2022-11-14T07:43:40;33.90;;;15.90;;
51901;SDS011;37929;53.218;6.548;2022-11-14T07:46:14;38.33;;;17.50;;
51901;SDS011;37929;53.218;6.548;2022-11-14T07:48:41;33.70;;;16.10;;
51901;SDS011;37929;53.218;6.548;2022-11-14T07:51:18;37.13;;;16.05;;
51901;SDS011;37929;53.218;6.548;2022-11-14T07:53:44;37.40;;;16.42;;
51901;SDS011;37929;53.218;6.548;2022-11-14T07:56:10;35.08;;;16.10;;
51901;SDS011;37929;53.218;6.548;2022-11-14T07:58:37;36.08;;;17.08;;
51901;SDS011;37929;53.218;6.548;2022-11-14T08:01:06;36.55;;;16.25;;
51901;SDS011;37929;53.218;6.548;2022-11-14T08:03:34;34.97;;;16.65;;
51901;SDS011;37929;53.218;6.548;2022-11-14T08:06:01;35.50;;;17.75;;
51901;SDS011;37929;53.218;6.548;2022-11-14T08:08:28;40.88;;;17.65;;
51901;SDS011;37929;53.218;6.548;2022-11-14T08:10:55;40.75;;;18.20;;
51901;SDS011;37929;53.218;6.548;2022-11-14T08:13:21;40.42;;;16.75;;
51901;SDS011;37929;53.218;6.548;2022-11-14T08:15:47;37.33;;;17.25;;
51901;SDS011;37929;53.218;6.548;2022-11-14T08:18:13;41.78;;;17.00;;
51901;SDS011;37929;53.218;6.548;2022-11-14T08:20:39;39.35;;;16.15;;
51901;SDS011;37929;53.218;6.548;2022-11-14T08:23:05;43.03;;;17.58;;
51901;SDS011;37929;53.218;6.548;2022-11-14T08:25:31;41.50;;;16.60;;
51901;SDS011;37929;53.218;6.548;2022-11-14T08:27:57;36.33;;;17.08;;
51901;SDS011;37929;53.218;6.548;2022-11-14T08:30:24;44.17;;;18.13;;
51901;SDS011;37929;53.218;6.548;2022-11-14T08:32:50;38.40;;;16.83;;
51901;SDS011;37929;53.218;6.548;2022-11-14T08:35:16;33.35;;;15.88;;
51901;SDS011;37929;53.218;6.548;2022-11-14T08:37:41;35.92;;;16.15;;
51901;SDS011;37929;53.218;6.548;2022-11-14T08:40:07;36.10;;;15.23;;
51901;SDS011;37929;53.218;6.548;2022-11-14T08:42:37;39.33;;;18.17;;
51901;SDS011;37929;53.218;6.548;2022-11-14T08:45:03;33.50;;;14.98;;
51901;SDS011;37929;53.218;6.548;2022-11-14T08:47:29;38.63;;;17.83;;
51901;SDS011;37929;53.218;6.548;2022-11-14T08:49:57;37.00;;;16.70;;
51901;SDS011;37929;53.218;6.548;2022-11-14T08:52:23;41.53;;;18.35;;
51901;SDS011;37929;53.218;6.548;2022-11-14T08:54:49;37.03;;;17.63;;
51901;SDS011;37929;53.218;6.548;2022-11-14T08:57:15;35.83;;;16.45;;
51901;SDS011;37929;53.218;6.548;2022-11-14T08:59:41;38.95;;;17.75;;
51901;SDS011;37929;53.218;6.548;2022-11-14T09:02:10;39.22;;;16.13;;
51901;SDS011;37929;53.218;6.548;2022-11-14T09:04:37;41.83;;;18.73;;
51901;SDS011;37929;53.218;6.548;2022-11-14T09:07:04;44.67;;;19.63;;
51901;SDS011;37929;53.218;6.548;2022-11-14T09:09:30;46.28;;;19.15;;
51901;SDS011;37929;53.218;6.548;2022-11-14T09:11:59;49.45;;;20.58;;
51901;SDS011;37929;53.218;6.548;2022-11-14T09:14:24;40.47;;;20.17;;
51901;SDS011;37929;53.218;6.548;2022-11-14T09:16:53;46.70;;;20.02;;
51901;SDS011;37929;53.218;6.548;2022-11-14T09:19:19;43.10;;;19.15;;
51901;SDS011;37929;53.218;6.548;2022-11-14T09:21:45;40.95;;;18.00;;
51901;SDS011;37929;53.218;6.548;2022-11-14T09:24:11;46.63;;;19.77;;
51901;SDS011;37929;53.218;6.548;2022-11-14T09:26:36;46.40;;;20.30;;
51901;SDS011;37929;53.218;6.548;2022-11-14T09:29:02;48.70;;;20.55;;
51901;SDS011;37929;53.218;6.548;2022-11-14T09:31:33;41.60;;;19.55;;
51901;SDS011;37929;53.218;6.548;2022-11-14T09:33:59;38.45;;;18.33;;
51901;SDS011;37929;53.218;6.548;2022-11-14T09:36:25;41.10;;;18.55;;
51901;SDS011;37929;53.218;6.548;2022-11-14T09:38:50;36.28;;;17.45;;
51901;SDS011;37929;53.218;6.548;2022-11-14T09:46:30;40.38;;;17.98;;
51901;SDS011;37929;53.218;6.548;2022-11-14T09:49:02;41.97;;;17.92;;
51901;SDS011;37929;53.218;6.548;2022-11-14T09:51:49;39.67;;;18.98;;
51901;SDS011;37929;53.218;6.548;2022-11-14T09:54:24;38.50;;;18.40;;
51901;SDS011;37929;53.218;6.548;2022-11-14T09:56:52;38.92;;;19.20;;
51901;SDS011;37929;53.218;6.548;2022-11-14T09:59:18;40.03;;;19.08;;
51901;SDS011;37929;53.218;6.548;2022-11-14T10:09:29;40.35;;;18.30;;
51901;SDS011;37929;53.218;6.548;2022-11-14T10:12:09;35.15;;;16.67;;
51901;SDS011;37929;53.218;6.548;2022-11-14T10:15:00;34.20;;;16.77;;
51901;SDS011;37929;53.218;6.548;2022-11-14T10:20:32;38.13;;;16.92;;
51901;SDS011;37929;53.218;6.548;2022-11-14T10:23:17;38.03;;;18.02;;
51901;SDS011;37929;53.218;6.548;2022-11-14T10:26:08;32.97;;;16.25;;
51901;SDS011;37929;53.218;6.548;2022-11-14T10:40:17;37.78;;;16.90;;
51901;SDS011;37929;53.218;6.548;2022-11-14T10:42:48;34.75;;;17.92;;
51901;SDS011;37929;53.218;6.548;2022-11-14T10:47:56;39.38;;;19.10;;
51901;SDS011;37929;53.218;6.548;2022-11-14T10:50:51;38.03;;;18.27;;
51901;SDS011;37929;53.218;6.548;2022-11-14T10:53:31;42.22;;;20.88;;
51901;SDS011;37929;53.218;6.548;2022-11-14T10:56:19;38.92;;;18.40;;
51901;SDS011;37929;53.218;6.548;2022-11-14T10:58:51;37.05;;;18.65;;
51901;SDS011;37929;53.218;6.548;2022-11-14T11:01:37;40.60;;;18.38;;
51901;SDS011;37929;53.218;6.548;2022-11-14T11:09:31;35.78;;;17.15;;
51901;SDS011;37929;53.218;6.548;2022-11-14T11:12:19;30.45;;;15.82;;
51901;SDS011;37929;53.218;6.548;2022-11-14T11:17:52;31.58;;;14.52;;
51901;SDS011;37929;53.218;6.548;2022-11-14T11:23:09;31.08;;;15.40;;
51901;SDS011;37929;53.218;6.548;2022-11-14T11:28:33;33.75;;;16.65;;
51901;SDS011;37929;53.218;6.548;2022-11-14T11:31:05;30.38;;;15.45;;
51901;SDS011;37929;53.218;6.548;2022-11-14T11:33:36;31.10;;;15.07;;
51901;SDS011;37929;53.218;6.548;2022-11-14T11:36:08;31.15;;;15.43;;
51901;SDS011;37929;53.218;6.548;2022-11-14T11:38:43;29.58;;;15.90;;
51901;SDS011;37929;53.218;6.548;2022-11-14T11:43:46;31.67;;;15.15;;
51901;SDS011;37929;53.218;6.548;2022-11-14T11:49:30;33.78;;;15.82;;
51901;SDS011;37929;53.218;6.548;2022-11-14T11:54:58;32.30;;;15.25;;
51901;SDS011;37929;53.218;6.548;2022-11-14T11:57:41;27.77;;;15.43;;
51901;SDS011;37929;53.218;6.548;2022-11-14T12:00:28;29.45;;;14.55;;
51901;SDS011;37929;53.218;6.548;2022-11-14T12:02:54;32.88;;;16.60;;
51901;SDS011;37929;53.218;6.548;2022-11-14T12:08:02;29.38;;;15.82;;
51901;SDS011;37929;53.218;6.548;2022-11-14T12:10:40;30.75;;;15.27;;
51901;SDS011;37929;53.218;6.548;2022-11-14T12:29:13;29.50;;;15.65;;
51901;SDS011;37929;53.218;6.548;2022-11-14T12:31:46;27.35;;;14.30;;
51901;SDS011;37929;53.218;6.548;2022-11-14T12:34:26;27.02;;;14.38;;
51901;SDS011;37929;53.218;6.548;2022-11-14T12:37:09;29.55;;;14.60;;
51901;SDS011;37929;53.218;6.548;2022-11-14T12:39:39;30.67;;;14.13;;
51901;SDS011;37929;53.218;6.548;2022-11-14T12:42:06;28.60;;;14.52;;
51901;SDS011;37929;53.218;6.548;2022-11-14T12:44:35;32.33;;;14.93;;
51901;SDS011;37929;53.218;6.548;2022-11-14T13:03:19;30.70;;;15.45;;
51901;SDS011;37929;53.218;6.548;2022-11-14T13:14:17;29.63;;;13.85;;
51901;SDS011;37929;53.218;6.548;2022-11-14T13:17:24;30.67;;;15.02;;
51901;SDS011;37929;53.218;6.548;2022-11-14T13:20:29;31.27;;;14.43;;
51901;SDS011;37929;53.218;6.548;2022-11-14T13:33:40;25.95;;;13.73;;
51901;SDS011;37929;53.218;6.548;2022-11-14T13:36:38;26.38;;;13.95;;
51901;SDS011;37929;53.218;6.548;2022-11-14T13:41:58;27.58;;;14.50;;
51901;SDS011;37929;53.218;6.548;2022-11-14T13:52:39;26.90;;;13.43;;
51901;SDS011;37929;53.218;6.548;2022-11-14T13:55:07;25.10;;;12.93;;
51901;SDS011;37929;53.218;6.548;2022-11-14T13:57:52;29.20;;;14.38;;
51901;SDS011;37929;53.218;6.548;2022-11-14T14:00:45;28.45;;;14.65;;
51901;SDS011;37929;53.218;6.548;2022-11-14T14:03:23;29.40;;;14.45;;
51901;SDS011;37929;53.218;6.548;2022-11-14T14:06:20;25.75;;;13.80;;
51901;SDS011;37929;53.218;6.548;2022-11-14T14:17:16;27.90;;;12.63;;
51901;SDS011;37929;53.218;6.548;2022-11-14T14:20:09;26.75;;;13.77;;
51901;SDS011;37929;53.218;6.548;2022-11-14T14:22:42;28.88;;;13.10;;
51901;SDS011;37929;53.218;6.548;2022-11-14T14:31:17;26.17;;;12.52;;
51901;SDS011;37929;53.218;6.548;2022-11-14T14:33:50;25.67;;;13.35;;
51901;SDS011;37929;53.218;6.548;2022-11-14T14:36:47;25.90;;;12.25;;
51901;SDS011;37929;53.218;6.548;2022-11-14T14:39:24;25.23;;;12.77;;
51901;SDS011;37929;53.218;6.548;2022-11-14T14:41:57;25.25;;;13.15;;
51901;SDS011;37929;53.218;6.548;2022-11-14T14:44:27;24.95;;;12.55;;
51901;SDS011;37929;53.218;6.548;2022-11-14T14:46:56;28.23;;;14.15;;
51901;SDS011;37929;53.218;6.548;2022-11-14T14:49:27;25.08;;;12.30;;
51901;SDS011;37929;53.218;6.548;2022-11-14T14:51:59;21.52;;;12.05;;
51901;SDS011;37929;53.218;6.548;2022-11-14T14:54:26;22.85;;;12.07;;
51901;SDS011;37929;53.218;6.548;2022-11-14T14:56:57;23.58;;;12.30;;
51901;SDS011;37929;53.218;6.548;2022-11-14T15:01:54;23.08;;;12.48;;
51901;SDS011;37929;53.218;6.548;2022-11-14T15:04:25;24.95;;;12.75;;
51901;SDS011;37929;53.218;6.548;2022-11-14T15:06:52;24.48;;;12.77;;
51901;SDS011;37929;53.218;6.548;2022-11-14T15:09:26;26.05;;;12.77;;
51901;SDS011;37929;53.218;6.548;2022-11-14T15:14:28;24.88;;;12.00;;
51901;SDS011;37929;53.218;6.548;2022-11-14T15:16:58;25.55;;;11.98;;
51901;SDS011;37929;53.218;6.548;2022-11-14T15:19:26;28.90;;;13.00;;
51901;SDS011;37929;53.218;6.548;2022-11-14T15:22:17;21.00;;;11.38;;
51901;SDS011;37929;53.218;6.548;2022-11-14T15:27:44;23.33;;;12.32;;
51901;SDS011;37929;53.218;6.548;2022-11-14T15:30:58;22.25;;;12.70;;
51901;SDS011;37929;53.218;6.548;2022-11-14T15:33:33;25.40;;;13.65;;
51901;SDS011;37929;53.218;6.548;2022-11-14T15:36:15;23.33;;;12.13;;
51901;SDS011;37929;53.218;6.548;2022-11-14T15:39:27;25.10;;;12.27;;
51901;SDS011;37929;53.218;6.548;2022-11-14T15:45:18;22.05;;;11.10;;
51901;SDS011;37929;53.218;6.548;2022-11-14T15:47:59;26.15;;;12.82;;
51901;SDS011;37929;53.218;6.548;2022-11-14T15:50:35;22.50;;;12.27;;
51901;SDS011;37929;53.218;6.548;2022-11-14T15:53:01;22.90;;;11.32;;
51901;SDS011;37929;53.218;6.548;2022-11-14T15:55:29;22.58;;;11.85;;
51901;SDS011;37929;53.218;6.548;2022-11-14T15:58:00;21.50;;;12.35;;
51901;SDS011;37929;53.218;6.548;2022-11-14T16:00:26;31.02;;;14.38;;
51901;SDS011;37929;53.218;6.548;2022-11-14T16:02:55;21.85;;;12.35;;
51901;SDS011;37929;53.218;6.548;2022-11-14T16:05:31;24.92;;;12.52;;
51901;SDS011;37929;53.218;6.548;2022-11-14T16:10:38;23.60;;;12.65;;
51901;SDS011;37929;53.218;6.548;2022-11-14T16:13:04;21.23;;;11.95;;
51901;SDS011;37929;53.218;6.548;2022-11-14T16:15:30;25.83;;;12.57;;
51901;SDS011;37929;53.218;6.548;2022-11-14T16:17:59;23.83;;;11.75;;
51901;SDS011;37929;53.218;6.548;2022-11-14T16:20:25;21.20;;;12.48;;
51901;SDS011;37929;53.218;6.548;2022-11-14T16:22:53;30.05;;;15.00;;
51901;SDS011;37929;53.218;6.548;2022-11-14T16:25:26;22.73;;;11.70;;
51901;SDS011;37929;53.218;6.548;2022-11-14T16:27:54;23.50;;;12.35;;
51901;SDS011;37929;53.218;6.548;2022-11-14T16:30:21;22.80;;;12.00;;
51901;SDS011;37929;53.218;6.548;2022-11-14T16:32:48;21.83;;;11.90;;
51901;SDS011;37929;53.218;6.548;2022-11-14T16:35:16;25.08;;;12.95;;
51901;SDS011;37929;53.218;6.548;2022-11-14T16:37:42;19.27;;;11.52;;
51901;SDS011;37929;53.218;6.548;2022-11-14T16:42:44;22.60;;;12.53;;
51901;SDS011;37929;53.218;6.548;2022-11-14T16:45:13;22.00;;;12.82;;
51901;SDS011;37929;53.218;6.548;2022-11-14T16:47:39;25.85;;;14.70;;
51901;SDS011;37929;53.218;6.548;2022-11-14T16:50:05;22.48;;;11.85;;
51901;SDS011;37929;53.218;6.548;2022-11-14T16:52:31;25.27;;;15.63;;
51901;SDS011;37929;53.218;6.548;2022-11-14T16:54:57;28.73;;;14.95;;
51901;SDS011;37929;53.218;6.548;2022-11-14T16:57:23;23.42;;;13.25;;
51901;SDS011;37929;53.218;6.548;2022-11-14T16:59:54;23.27;;;12.85;;
51901;SDS011;37929;53.218;6.548;2022-11-14T17:02:22;23.50;;;11.80;;
51901;SDS011;37929;53.218;6.548;2022-11-14T17:04:48;19.77;;;11.85;;
51901;SDS011;37929;53.218;6.548;2022-11-14T17:07:18;24.05;;;11.93;;
51901;SDS011;37929;53.218;6.548;2022-11-14T17:09:43;23.30;;;12.15;;
51901;SDS011;37929;53.218;6.548;2022-11-14T17:12:14;22.15;;;11.90;;
51901;SDS011;37929;53.218;6.548;2022-11-14T17:14:48;26.58;;;11.85;;
51901;SDS011;37929;53.218;6.548;2022-11-14T17:17:29;22.27;;;11.68;;